createdAt,value
2022-11-12T00:00:53.087Z,9.56
2022-11-12T00:03:20.204Z,9.82
2022-11-12T00:05:46.803Z,9.77
2022-11-12T00:08:13.848Z,9.70
2022-11-12T00:10:40.244Z,9.22
2022-11-12T00:13:06.730Z,8.82
2022-11-12T00:15:33.194Z,8.84
2022-11-12T00:17:59.576Z,8.77
2022-11-12T00:20:25.900Z,9.03
2022-11-12T00:22:52.270Z,8.60
2022-11-12T00:25:18.638Z,9.36
2022-11-12T00:27:45.016Z,9.24
2022-11-12T00:30:11.759Z,8.87
2022-11-12T00:32:38.282Z,9.40
2022-11-12T00:35:06.860Z,9.60
2022-11-12T00:37:35.349Z,9.19
2022-11-12T00:40:01.804Z,9.08
2022-11-12T00:42:28.113Z,8.60
2022-11-12T00:44:54.519Z,8.77
2022-11-12T00:47:20.855Z,8.97
2022-11-12T00:49:47.343Z,8.42
2022-11-12T00:52:13.814Z,8.48
2022-11-12T00:54:40.288Z,8.73
2022-11-12T00:57:06.643Z,9.29
2022-11-12T00:59:33.256Z,9.30
2022-11-12T01:01:59.645Z,8.90
2022-11-12T01:04:26.020Z,9.11
2022-11-12T01:06:52.469Z,9.34
2022-11-12T01:09:18.817Z,8.69
2022-11-12T01:11:45.167Z,8.99
2022-11-12T01:14:11.606Z,9.18
2022-11-12T01:16:40.351Z,8.62
2022-11-12T01:19:10.683Z,8.60
2022-11-12T01:21:39.985Z,9.24
2022-11-12T01:24:07.088Z,8.49
2022-11-12T01:26:33.559Z,8.89
2022-11-12T01:29:00.022Z,9.00
2022-11-12T01:31:45.589Z,9.03
2022-11-12T01:34:12.425Z,9.03
2022-11-12T01:36:39.908Z,9.20
2022-11-12T01:39:08.819Z,8.90
2022-11-12T01:41:38.582Z,9.23
2022-11-12T01:44:10.901Z,9.27
2022-11-12T01:47:10.173Z,9.01
2022-11-12T01:49:50.460Z,8.80
2022-11-12T01:52:26.212Z,9.04
2022-11-12T01:54:56.534Z,8.42
2022-11-12T01:57:34.611Z,8.19
2022-11-12T02:00:05.409Z,9.02
2022-11-12T02:02:34.322Z,8.69
2022-11-12T02:05:02.986Z,8.59
2022-11-12T02:07:30.955Z,8.74
2022-11-12T02:09:59.814Z,8.06
2022-11-12T02:12:44.734Z,8.61
2022-11-12T02:15:11.097Z,8.34
2022-11-12T02:17:37.604Z,8.63
2022-11-12T02:20:04.346Z,8.47
2022-11-12T02:22:30.801Z,8.66
2022-11-12T02:24:57.144Z,7.99
2022-11-12T02:27:24.382Z,7.79
2022-11-12T02:29:51.091Z,7.87
2022-11-12T02:32:17.430Z,8.40
2022-11-12T02:34:43.853Z,8.64
2022-11-12T02:37:10.220Z,8.31
2022-11-12T02:39:36.703Z,7.94
2022-11-12T02:42:03.685Z,8.92
2022-11-12T02:44:31.033Z,8.00
2022-11-12T02:46:57.361Z,8.08
2022-11-12T02:49:23.800Z,8.43
2022-11-12T02:51:50.201Z,8.35
2022-11-12T02:54:16.684Z,8.55
2022-11-12T02:56:43.056Z,8.31
2022-11-12T02:59:09.510Z,8.33
2022-11-12T03:01:35.831Z,8.36
2022-11-12T03:04:02.220Z,8.34
2022-11-12T03:06:28.541Z,8.42
2022-11-12T03:08:55.228Z,8.26
2022-11-12T03:11:21.650Z,8.34
2022-11-12T03:13:47.960Z,8.18
2022-11-12T03:16:14.385Z,8.52
2022-11-12T03:18:40.731Z,7.72
2022-11-12T03:21:07.228Z,8.21
2022-11-12T03:23:33.637Z,8.29
2022-11-12T03:26:03.399Z,8.31
2022-11-12T03:28:30.385Z,8.03
2022-11-12T03:31:00.421Z,8.45
2022-11-12T03:33:26.820Z,8.43
2022-11-12T03:35:53.128Z,7.43
2022-11-12T03:38:19.612Z,7.87
2022-11-12T03:40:46.053Z,8.14
2022-11-12T03:43:12.494Z,8.09
2022-11-12T03:45:38.919Z,7.87
2022-11-12T03:48:05.658Z,8.08
2022-11-12T03:50:32.058Z,7.75
2022-11-12T03:53:00.071Z,8.38
2022-11-12T03:55:28.945Z,7.98
2022-11-12T03:57:57.638Z,8.15
2022-11-12T04:00:26.701Z,8.22
2022-11-12T04:02:53.401Z,8.25
2022-11-12T04:05:38.441Z,7.43
2022-11-12T04:08:31.665Z,8.11
2022-11-12T04:10:58.117Z,7.92
2022-11-12T04:13:27.711Z,8.05
2022-11-12T04:16:17.308Z,8.06
2022-11-12T04:19:03.553Z,7.78
2022-11-12T04:21:55.932Z,7.99
2022-11-12T04:24:46.528Z,8.13
2022-11-12T04:27:27.494Z,8.16
2022-11-12T04:30:12.558Z,8.14
2022-11-12T04:32:54.556Z,8.00
2022-11-12T04:35:26.193Z,8.04
2022-11-12T04:37:52.723Z,8.14
2022-11-12T04:40:40.718Z,8.00
2022-11-12T04:43:31.548Z,7.97
2022-11-12T04:45:58.735Z,8.35
2022-11-12T04:48:25.924Z,8.37
2022-11-12T04:50:58.907Z,8.36
2022-11-12T04:53:25.914Z,8.38
2022-11-12T04:55:53.900Z,8.25
2022-11-12T04:58:20.561Z,8.28
2022-11-12T05:00:47.936Z,8.22
2022-11-12T05:03:15.120Z,7.91
2022-11-12T05:05:41.555Z,6.79
2022-11-12T05:08:08.053Z,8.29
2022-11-12T05:10:34.613Z,8.29
2022-11-12T05:13:01.031Z,8.07
2022-11-12T05:15:27.363Z,7.92
2022-11-12T05:17:53.778Z,7.98
2022-11-12T05:20:20.081Z,7.97
2022-11-12T05:23:04.521Z,7.58
2022-11-12T05:25:32.479Z,8.06
2022-11-12T05:27:58.849Z,7.56
2022-11-12T05:30:25.249Z,7.77
2022-11-12T05:32:51.604Z,7.87
2022-11-12T05:35:17.931Z,7.49
2022-11-12T05:37:44.280Z,7.99
2022-11-12T05:40:10.965Z,8.05
2022-11-12T05:42:37.297Z,7.94
2022-11-12T05:45:04.268Z,7.94
2022-11-12T05:47:30.610Z,7.92
2022-11-12T05:49:56.950Z,7.59
2022-11-12T05:52:23.264Z,7.48
2022-11-12T05:54:49.611Z,7.27
2022-11-12T05:57:15.930Z,7.73
2022-11-12T05:59:42.286Z,7.98
2022-11-12T06:02:08.697Z,7.63
2022-11-12T06:04:35.088Z,7.90
2022-11-12T06:07:04.056Z,7.91
2022-11-12T06:09:30.550Z,7.42
2022-11-12T06:11:56.919Z,7.40
2022-11-12T06:14:23.224Z,7.29
2022-11-12T06:16:49.565Z,8.01
2022-11-12T06:19:15.925Z,7.77
2022-11-12T06:21:42.257Z,7.50
2022-11-12T06:24:09.176Z,7.56
2022-11-12T06:26:36.165Z,6.99
2022-11-12T06:29:02.486Z,7.40
2022-11-12T06:31:28.812Z,7.56
2022-11-12T06:33:55.339Z,7.66
2022-11-12T06:36:21.734Z,7.54
2022-11-12T06:38:48.744Z,7.55
2022-11-12T06:41:15.683Z,7.25
2022-11-12T06:43:42.615Z,7.70
2022-11-12T06:46:13.461Z,7.51
2022-11-12T06:48:40.569Z,7.70
2022-11-12T06:51:10.405Z,7.06
2022-11-12T06:53:36.767Z,7.68
2022-11-12T06:56:05.647Z,7.71
2022-11-12T06:58:31.997Z,7.70
2022-11-12T07:01:11.144Z,7.96
2022-11-12T07:03:39.482Z,8.20
2022-11-12T07:06:11.071Z,8.31
2022-11-12T07:08:38.152Z,8.54
2022-11-12T07:11:05.419Z,7.95
2022-11-12T07:13:33.053Z,8.74
2022-11-12T07:16:00.731Z,8.78
2022-11-12T07:18:28.503Z,9.04
2022-11-12T07:21:05.402Z,9.23
2022-11-12T07:23:33.568Z,9.04
2022-11-12T07:26:02.169Z,9.32
2022-11-12T07:28:29.962Z,9.37
2022-11-12T07:30:58.679Z,8.99
2022-11-12T07:33:25.711Z,8.83
2022-11-12T07:36:02.663Z,9.33
2022-11-12T07:38:30.418Z,9.49
2022-11-12T07:41:07.102Z,9.55
2022-11-12T07:43:35.419Z,9.56
2022-11-12T07:46:10.485Z,9.60
2022-11-12T07:48:37.843Z,9.25
2022-11-12T07:51:25.023Z,9.69
2022-11-12T07:53:57.896Z,9.64
2022-11-12T07:56:27.261Z,9.72
2022-11-12T07:58:53.574Z,9.16
2022-11-12T08:01:32.348Z,9.53
2022-11-12T08:04:00.303Z,9.84
2022-11-12T08:06:27.578Z,9.76
2022-11-12T08:08:58.478Z,9.97
2022-11-12T08:11:25.216Z,9.83
2022-11-12T08:13:51.617Z,9.97
2022-11-12T08:16:18.411Z,10.09
2022-11-12T08:18:45.623Z,10.01
2022-11-12T08:21:14.550Z,10.16
2022-11-12T08:23:41.963Z,10.11
2022-11-12T08:26:11.860Z,10.25
2022-11-12T08:28:38.743Z,9.87
2022-11-12T08:31:07.308Z,10.40
2022-11-12T08:33:34.761Z,10.51
2022-11-12T08:36:05.838Z,10.33
2022-11-12T08:38:32.795Z,10.57
2022-11-12T08:41:04.133Z,10.61
2022-11-12T08:43:30.587Z,10.38
2022-11-12T08:46:00.878Z,10.57
2022-11-12T08:48:28.830Z,10.83
2022-11-12T08:50:56.001Z,10.88
2022-11-12T08:53:24.006Z,10.68
2022-11-12T08:55:55.057Z,10.90
2022-11-12T08:58:21.452Z,10.71
2022-11-12T09:00:48.011Z,10.91
2022-11-12T09:03:16.501Z,11.09
2022-11-12T09:05:43.599Z,11.03
2022-11-12T09:08:13.342Z,11.23
2022-11-12T09:10:41.417Z,11.31
2022-11-12T09:13:09.393Z,11.26
2022-11-12T09:15:38.374Z,11.30
2022-11-12T09:18:08.095Z,11.54
2022-11-12T09:20:34.905Z,11.65
2022-11-12T09:23:03.989Z,11.72
2022-11-12T09:25:30.491Z,11.64
2022-11-12T09:27:56.824Z,11.67
2022-11-12T09:30:23.544Z,11.71
2022-11-12T09:32:50.000Z,11.85
2022-11-12T09:35:16.368Z,11.63
2022-11-12T09:37:42.675Z,11.83
2022-11-12T09:40:17.676Z,12.29
2022-11-12T09:42:53.167Z,12.38
2022-11-12T09:45:29.831Z,12.34
2022-11-12T09:48:12.549Z,12.36
2022-11-12T09:50:49.632Z,12.31
2022-11-12T09:53:44.293Z,12.57
2022-11-12T09:56:12.783Z,12.71
2022-11-12T09:58:39.191Z,12.51
2022-11-12T10:01:34.836Z,12.69
2022-11-12T10:04:29.700Z,13.00
2022-11-12T10:07:05.408Z,13.45
2022-11-12T10:09:48.101Z,13.67
2022-11-12T10:12:36.234Z,14.45
2022-11-12T10:15:43.315Z,14.50
2022-11-12T10:18:34.771Z,14.65
2022-11-12T10:21:29.216Z,14.99
2022-11-12T10:23:56.909Z,15.29
2022-11-12T10:26:25.956Z,15.46
2022-11-12T10:29:14.419Z,16.01
2022-11-12T10:31:40.803Z,16.75
2022-11-12T10:34:13.352Z,17.52
2022-11-12T10:36:45.356Z,17.53
2022-11-12T10:39:34.341Z,17.77
2022-11-12T10:42:10.009Z,17.81
2022-11-12T10:44:37.830Z,18.14
2022-11-12T10:47:33.225Z,18.58
2022-11-12T10:50:13.803Z,18.59
2022-11-12T10:52:52.220Z,18.31
2022-11-12T10:55:22.586Z,18.57
2022-11-12T10:58:21.592Z,18.25
2022-11-12T11:00:59.781Z,19.03
2022-11-12T11:03:34.981Z,19.18
2022-11-12T11:06:14.412Z,19.36
2022-11-12T11:09:13.309Z,19.89
2022-11-12T11:11:51.496Z,19.88
2022-11-12T11:14:32.838Z,20.11
2022-11-12T11:17:08.283Z,19.84
2022-11-12T11:19:40.876Z,19.95
2022-11-12T11:22:18.803Z,20.06
2022-11-12T11:25:10.385Z,20.19
2022-11-12T11:28:05.197Z,19.93
2022-11-12T11:30:32.454Z,19.19
2022-11-12T11:33:30.935Z,18.31
2022-11-12T11:36:12.445Z,17.58
2022-11-12T11:38:39.513Z,17.15
2022-11-12T11:41:17.474Z,16.89
2022-11-12T11:43:59.812Z,16.53
2022-11-12T11:46:47.499Z,16.48
2022-11-12T11:49:32.536Z,16.41
2022-11-12T11:52:35.634Z,16.33
2022-11-12T11:55:13.861Z,16.36
2022-11-12T11:57:45.791Z,16.27
2022-11-12T12:00:20.767Z,16.11
2022-11-12T12:03:08.929Z,16.34
2022-11-12T12:05:54.092Z,16.37
2022-11-12T12:08:49.655Z,16.28
2022-11-12T12:11:58.749Z,16.19
2022-11-12T12:14:43.827Z,16.36
2022-11-12T12:17:23.422Z,16.41
2022-11-12T12:20:19.085Z,16.33
2022-11-12T12:22:51.285Z,16.45
2022-11-12T12:25:26.308Z,16.49
2022-11-12T12:28:05.747Z,16.26
2022-11-12T12:30:36.451Z,16.56
2022-11-12T12:33:14.953Z,15.93
2022-11-12T12:35:51.669Z,16.53
2022-11-12T12:39:02.722Z,16.58
2022-11-12T12:41:45.488Z,16.61
2022-11-12T12:44:12.421Z,16.37
2022-11-12T12:46:56.726Z,16.34
2022-11-12T12:49:32.712Z,16.59
2022-11-12T12:51:59.678Z,16.67
2022-11-12T12:54:35.335Z,16.83
2022-11-12T12:57:03.982Z,15.99
2022-11-12T12:59:30.450Z,16.31
2022-11-12T13:02:01.092Z,16.69
2022-11-12T13:04:50.230Z,16.79
2022-11-12T13:07:16.588Z,16.68
2022-11-12T13:09:43.260Z,16.70
2022-11-12T13:12:09.732Z,16.44
2022-11-12T13:14:36.052Z,16.85
2022-11-12T13:17:06.810Z,16.73
2022-11-12T13:19:44.083Z,16.68
2022-11-12T13:22:19.311Z,16.94
2022-11-12T13:25:20.072Z,16.97
2022-11-12T13:27:46.990Z,17.01
2022-11-12T13:30:13.230Z,17.03
2022-11-12T13:32:48.832Z,17.08
2022-11-12T13:35:26.661Z,17.09
2022-11-12T13:38:03.468Z,17.15
2022-11-12T13:40:29.788Z,17.13
2022-11-12T13:43:11.471Z,16.90
2022-11-12T13:45:45.108Z,16.83
2022-11-12T13:48:21.536Z,17.16
2022-11-12T13:50:54.945Z,17.17
2022-11-12T13:53:27.730Z,16.98
2022-11-12T13:55:54.921Z,17.19
2022-11-12T13:58:33.521Z,17.06
2022-11-12T14:01:04.867Z,17.01
2022-11-12T14:03:41.485Z,16.56
2022-11-12T14:06:16.587Z,17.13
2022-11-12T14:09:02.753Z,16.80
2022-11-12T14:11:46.193Z,17.16
2022-11-12T14:14:26.892Z,17.05
2022-11-12T14:17:05.400Z,17.15
2022-11-12T14:19:54.152Z,16.96
2022-11-12T14:22:22.010Z,17.09
2022-11-12T14:24:59.941Z,16.97
2022-11-12T14:27:26.237Z,17.09
2022-11-12T14:30:10.997Z,17.12
2022-11-12T14:32:38.645Z,16.98
2022-11-12T14:35:35.270Z,17.08
2022-11-12T14:38:23.420Z,17.12
2022-11-12T14:41:11.458Z,16.43
2022-11-12T14:43:42.760Z,16.46
2022-11-12T14:46:21.652Z,16.60
2022-11-12T14:48:54.170Z,16.56
2022-11-12T14:51:22.317Z,16.44
2022-11-12T14:53:56.481Z,17.10
2022-11-12T14:56:45.115Z,17.06
2022-11-12T14:59:13.934Z,16.51
2022-11-12T15:02:21.775Z,17.06
2022-11-12T15:04:36.889Z,16.84
2022-11-12T15:07:03.307Z,16.51
2022-11-12T15:09:35.589Z,16.76
2022-11-12T15:12:09.347Z,16.47
2022-11-12T15:14:35.738Z,16.06
2022-11-12T15:17:04.666Z,16.47
2022-11-12T15:19:31.408Z,16.33
2022-11-12T15:22:03.064Z,15.93
2022-11-12T15:24:35.070Z,16.27
2022-11-12T15:27:22.974Z,16.42
2022-11-12T15:29:49.297Z,15.73
2022-11-12T15:32:30.829Z,16.30
2022-11-12T15:34:57.144Z,16.11
2022-11-12T15:37:27.118Z,16.17
2022-11-12T15:39:58.138Z,16.10
2022-11-12T15:42:26.495Z,16.02
2022-11-12T15:44:59.375Z,15.82
2022-11-12T15:47:25.724Z,15.64
2022-11-12T15:49:54.151Z,15.54
2022-11-12T15:52:20.584Z,15.48
2022-11-12T15:54:47.619Z,15.56
2022-11-12T15:57:27.001Z,15.51
2022-11-12T16:00:30.674Z,15.24
2022-11-12T16:03:00.020Z,15.40
2022-11-12T16:05:26.384Z,15.18
2022-11-12T16:07:52.760Z,14.98
2022-11-12T16:10:19.632Z,14.46
2022-11-12T16:12:47.973Z,14.01
2022-11-12T16:15:23.244Z,14.89
2022-11-12T16:17:49.567Z,14.65
2022-11-12T16:20:21.210Z,14.37
2022-11-12T16:22:49.005Z,14.48
2022-11-12T16:25:15.958Z,14.85
2022-11-12T16:27:42.871Z,14.72
2022-11-12T16:30:24.405Z,14.66
2022-11-12T16:32:50.741Z,14.66
2022-11-12T16:35:17.630Z,14.75
2022-11-12T16:37:45.419Z,14.37
2022-11-12T16:40:24.664Z,14.26
2022-11-12T16:42:51.042Z,14.37
2022-11-12T16:45:20.300Z,13.91
2022-11-12T16:47:55.440Z,14.44
2022-11-12T16:50:24.681Z,14.42
2022-11-12T16:52:51.277Z,14.39
2022-11-12T16:55:17.629Z,14.11
2022-11-12T16:57:44.098Z,14.16
2022-11-12T17:00:15.436Z,14.23
2022-11-12T17:02:46.119Z,14.12
2022-11-12T17:05:24.165Z,14.00
2022-11-12T17:07:55.377Z,13.79
2022-11-12T17:10:25.215Z,14.14
2022-11-12T17:12:52.322Z,14.27
2022-11-12T17:15:18.933Z,14.55
2022-11-12T17:17:45.435Z,14.44
2022-11-12T17:20:11.796Z,14.53
2022-11-12T17:22:38.215Z,13.97
2022-11-12T17:25:06.628Z,14.05
2022-11-12T17:27:33.028Z,14.66
2022-11-12T17:29:59.385Z,14.36
2022-11-12T17:32:25.759Z,14.71
2022-11-12T17:34:52.079Z,14.54
2022-11-12T17:37:18.467Z,14.93
2022-11-12T17:39:44.883Z,14.82
2022-11-12T17:42:11.214Z,14.68
2022-11-12T17:44:37.560Z,14.68
2022-11-12T17:47:03.981Z,14.67
2022-11-12T17:49:30.317Z,14.85
2022-11-12T17:51:56.640Z,14.46
2022-11-12T17:54:22.995Z,14.68
2022-11-12T17:56:49.323Z,14.79
2022-11-12T17:59:15.643Z,14.40
2022-11-12T18:01:41.995Z,14.66
2022-11-12T18:04:10.286Z,14.07
2022-11-12T18:06:36.788Z,14.72
2022-11-12T18:09:11.780Z,14.56
2022-11-12T18:11:56.672Z,14.44
2022-11-12T18:14:23.243Z,14.37
2022-11-12T18:16:49.670Z,14.50
2022-11-12T18:19:16.074Z,14.29
2022-11-12T18:21:42.542Z,13.97
2022-11-12T18:24:14.301Z,14.43
2022-11-12T18:26:41.054Z,14.38
2022-11-12T18:29:07.535Z,14.21
2022-11-12T18:31:33.905Z,14.16
2022-11-12T18:34:00.372Z,13.70
2022-11-12T18:36:26.803Z,14.21
2022-11-12T18:38:54.663Z,14.08
2022-11-12T18:41:25.583Z,14.51
2022-11-12T18:43:53.279Z,14.52
2022-11-12T18:46:19.947Z,14.27
2022-11-12T18:48:47.296Z,14.30
2022-11-12T18:51:15.675Z,14.36
2022-11-12T18:53:42.947Z,14.32
2022-11-12T18:56:13.119Z,14.42
2022-11-12T18:58:39.509Z,14.02
2022-11-12T19:01:17.719Z,14.38
2022-11-12T19:03:44.346Z,14.13
2022-11-12T19:06:12.547Z,13.75
2022-11-12T19:08:39.195Z,14.08
2022-11-12T19:11:16.398Z,14.04
2022-11-12T19:13:43.035Z,13.51
2022-11-12T19:16:14.151Z,14.16
2022-11-12T19:18:41.748Z,13.52
2022-11-12T19:21:17.143Z,14.19
2022-11-12T19:23:43.559Z,13.91
2022-11-12T19:26:15.087Z,14.22
2022-11-12T19:28:42.336Z,14.24
2022-11-12T19:31:14.383Z,14.25
2022-11-12T19:33:40.979Z,14.07
2022-11-12T19:36:10.046Z,14.03
2022-11-12T19:38:36.614Z,14.27
2022-11-12T19:41:04.854Z,13.99
2022-11-12T19:43:31.645Z,14.26
2022-11-12T19:45:58.098Z,14.02
2022-11-12T19:48:25.394Z,14.28
2022-11-12T19:50:52.299Z,13.97
2022-11-12T19:53:19.191Z,14.38
2022-11-12T19:55:45.523Z,14.28
2022-11-12T19:58:11.839Z,14.38
2022-11-12T20:00:38.382Z,14.46
2022-11-12T20:03:10.050Z,14.44
2022-11-12T20:05:36.478Z,14.20
2022-11-12T20:08:02.858Z,14.32
2022-11-12T20:10:29.352Z,14.22
2022-11-12T20:12:55.765Z,13.68
2022-11-12T20:15:22.169Z,14.18
2022-11-12T20:17:48.453Z,14.22
2022-11-12T20:20:15.112Z,14.26
2022-11-12T20:22:41.430Z,14.29
2022-11-12T20:25:08.176Z,14.39
2022-11-12T20:27:34.552Z,14.26
2022-11-12T20:30:00.887Z,14.52
2022-11-12T20:32:27.267Z,14.42
2022-11-12T20:34:53.669Z,14.27
2022-11-12T20:37:20.104Z,14.04
2022-11-12T20:39:46.570Z,14.33
2022-11-12T20:42:12.975Z,13.69
2022-11-12T20:44:39.335Z,14.55
2022-11-12T20:47:05.650Z,14.28
2022-11-12T20:49:31.999Z,14.46
2022-11-12T20:51:58.317Z,13.83
2022-11-12T20:54:24.721Z,14.16
2022-11-12T20:56:51.138Z,14.14
2022-11-12T20:59:17.488Z,14.29
2022-11-12T21:01:43.999Z,13.72
2022-11-12T21:04:12.244Z,13.27
2022-11-12T21:06:38.917Z,14.43
2022-11-12T21:09:05.386Z,14.20
2022-11-12T21:11:31.758Z,14.20
2022-11-12T21:14:00.555Z,14.25
2022-11-12T21:16:27.021Z,13.78
2022-11-12T21:18:53.359Z,13.79
2022-11-12T21:21:21.113Z,13.85
2022-11-12T21:23:50.128Z,14.10
2022-11-12T21:26:19.841Z,13.90
2022-11-12T21:28:52.416Z,13.82
2022-11-12T21:31:21.421Z,13.75
2022-11-12T21:33:55.462Z,13.74
2022-11-12T21:36:23.301Z,13.96
2022-11-12T21:38:49.821Z,13.79
2022-11-12T21:41:18.992Z,13.61
2022-11-12T21:43:46.168Z,13.92
2022-11-12T21:46:21.298Z,13.80
2022-11-12T21:48:52.211Z,13.81
2022-11-12T21:51:28.790Z,13.40
2022-11-12T21:53:56.051Z,13.98
2022-11-12T21:56:22.882Z,13.84
2022-11-12T21:58:49.260Z,13.54
2022-11-12T22:01:25.135Z,13.76
2022-11-12T22:03:53.233Z,13.77
2022-11-12T22:06:21.440Z,13.57
2022-11-12T22:08:51.517Z,13.61
2022-11-12T22:11:18.170Z,13.60
2022-11-12T22:13:44.514Z,13.34
2022-11-12T22:16:19.705Z,13.27
2022-11-12T22:18:47.699Z,13.56
2022-11-12T22:21:22.754Z,13.31
2022-11-12T22:23:49.798Z,13.11
2022-11-12T22:26:20.526Z,13.35
2022-11-12T22:28:47.795Z,13.50
2022-11-12T22:31:17.115Z,13.28
2022-11-12T22:33:43.655Z,13.18
2022-11-12T22:36:12.742Z,13.32
2022-11-12T22:38:41.745Z,13.46
2022-11-12T22:41:13.843Z,13.23
2022-11-12T22:43:40.974Z,13.40
2022-11-12T22:46:21.973Z,13.43
2022-11-12T22:48:48.708Z,13.24
2022-11-12T22:51:17.946Z,13.15
2022-11-12T22:53:44.679Z,13.17
2022-11-12T22:56:13.983Z,12.88
2022-11-12T22:58:43.086Z,12.99
2022-11-12T23:01:19.035Z,13.31
2022-11-12T23:03:45.463Z,13.20
2022-11-12T23:06:12.211Z,13.00
2022-11-12T23:08:38.576Z,12.97
2022-11-12T23:11:10.507Z,12.80
2022-11-12T23:13:37.863Z,12.84
2022-11-12T23:16:12.901Z,13.07
2022-11-12T23:18:39.646Z,12.85
2022-11-12T23:21:15.504Z,12.96
2022-11-12T23:23:44.092Z,12.62
2022-11-12T23:26:13.685Z,12.67
2022-11-12T23:28:40.429Z,12.52
2022-11-12T23:31:13.734Z,12.91
2022-11-12T23:33:44.418Z,12.65
2022-11-12T23:36:11.287Z,12.16
2022-11-12T23:38:37.631Z,12.20
2022-11-12T23:41:05.042Z,12.90
2022-11-12T23:43:31.772Z,12.93
2022-11-12T23:45:58.587Z,12.95
2022-11-12T23:48:25.239Z,12.68
2022-11-12T23:50:59.652Z,12.83
2022-11-12T23:53:25.985Z,12.69
2022-11-12T23:55:52.668Z,12.86
2022-11-12T23:58:19.006Z,12.86
